sensor_id;sensor_type;location;lat;lon;timestamp;pressure;altitude;pressure_sealevel;temperature;humidity
9717;BME280;4897;43.570;27.832;2023-04-29T00:00:15;99164.59;;;7.28;100.00
9717;BME280;4897;43.570;27.832;2023-04-29T00:02:43;99109.22;;;6.96;100.00
9717;BME280;4897;43.570;27.832;2023-04-29T00:05:10;99166.41;;;7.14;100.00
9717;BME280;4897;43.570;27.832;2023-04-29T00:07:37;99165.34;;;7.17;100.00
9717;BME280;4897;43.570;27.832;2023-04-29T00:10:05;99151.63;;;7.10;100.00
9717;BME280;4897;43.570;27.832;2023-04-29T00:12:32;99160.66;;;7.08;100.00
9717;BME280;4897;43.570;27.832;2023-04-29T00:14:59;99149.72;;;7.12;100.00
9717;BME280;4897;43.570;27.832;2023-04-29T00:17:27;99158.09;;;7.19;100.00
9717;BME280;4897;43.570;27.832;2023-04-29T00:19:55;99158.31;;;7.03;100.00
9717;BME280;4897;43.570;27.832;2023-04-29T00:22:22;99160.03;;;7.04;100.00
9717;BME280;4897;43.570;27.832;2023-04-29T00:24:49;99144.31;;;6.76;100.00
9717;BME280;4897;43.570;27.832;2023-04-29T00:27:17;99158.25;;;6.92;100.00
9717;BME280;4897;43.570;27.832;2023-04-29T00:29:44;99158.25;;;6.92;100.00
9717;BME280;4897;43.570;27.832;2023-04-29T00:32:11;99143.06;;;6.69;100.00
9717;BME280;4897;43.570;27.832;2023-04-29T00:34:38;99082.69;;;6.33;100.00
9717;BME280;4897;43.570;27.832;2023-04-29T00:37:06;99152.63;;;6.59;100.00
9717;BME280;4897;43.570;27.832;2023-04-29T00:39:33;99156.75;;;6.63;100.00
9717;BME280;4897;43.570;27.832;2023-04-29T00:42:00;99152.69;;;6.45;100.00
9717;BME280;4897;43.570;27.832;2023-04-29T00:44:27;99165.78;;;6.48;100.00
9717;BME280;4897;43.570;27.832;2023-04-29T00:46:54;99164.81;;;6.49;100.00
9717;BME280;4897;43.570;27.832;2023-04-29T00:49:21;99167.25;;;6.39;100.00
9717;BME280;4897;43.570;27.832;2023-04-29T00:51:48;99173.41;;;6.40;100.00
9717;BME280;4897;43.570;27.832;2023-04-29T00:54:17;99165.88;;;6.34;100.00
9717;BME280;4897;43.570;27.832;2023-04-29T00:56:45;99153.19;;;6.25;100.00
9717;BME280;4897;43.570;27.832;2023-04-29T00:59:12;99172.53;;;6.27;100.00
9717;BME280;4897;43.570;27.832;2023-04-29T01:01:43;99172.94;;;6.21;100.00
9717;BME280;4897;43.570;27.832;2023-04-29T01:04:10;99170.72;;;6.27;100.00
9717;BME280;4897;43.570;27.832;2023-04-29T01:06:48;99177.44;;;6.33;100.00
9717;BME280;4897;43.570;27.832;2023-04-29T01:09:46;99168.91;;;6.28;100.00
9717;BME280;4897;43.570;27.832;2023-04-29T01:12:20;99164.34;;;6.17;100.00
9717;BME280;4897;43.570;27.832;2023-04-29T01:15:03;99164.00;;;6.22;100.00
9717;BME280;4897;43.570;27.832;2023-04-29T01:17:35;99179.31;;;6.18;100.00
9717;BME280;4897;43.570;27.832;2023-04-29T01:20:03;99072.81;;;5.57;100.00
9717;BME280;4897;43.570;27.832;2023-04-29T01:22:31;99155.28;;;6.20;100.00
9717;BME280;4897;43.570;27.832;2023-04-29T01:24:59;99155.53;;;6.17;100.00
9717;BME280;4897;43.570;27.832;2023-04-29T01:27:39;99148.28;;;6.06;100.00
9717;BME280;4897;43.570;27.832;2023-04-29T01:30:12;99133.91;;;5.96;100.00
9717;BME280;4897;43.570;27.832;2023-04-29T01:32:50;99149.72;;;5.98;100.00
9717;BME280;4897;43.570;27.832;2023-04-29T01:35:29;99163.56;;;6.03;100.00
9717;BME280;4897;43.570;27.832;2023-04-29T01:38:10;99164.94;;;6.08;100.00
9717;BME280;4897;43.570;27.832;2023-04-29T01:40:47;99158.63;;;5.97;100.00
9717;BME280;4897;43.570;27.832;2023-04-29T01:43:20;99170.09;;;5.97;100.00
9717;BME280;4897;43.570;27.832;2023-04-29T01:45:49;99154.41;;;5.94;100.00
9717;BME280;4897;43.570;27.832;2023-04-29T01:48:18;99161.84;;;6.02;100.00
9717;BME280;4897;43.570;27.832;2023-04-29T01:50:46;99149.09;;;5.94;100.00
9717;BME280;4897;43.570;27.832;2023-04-29T01:53:12;99160.47;;;5.96;100.00
9717;BME280;4897;43.570;27.832;2023-04-29T01:55:39;99159.72;;;5.94;100.00
9717;BME280;4897;43.570;27.832;2023-04-29T01:58:09;99159.59;;;5.96;100.00
9717;BME280;4897;43.570;27.832;2023-04-29T02:00:36;99167.09;;;5.89;100.00
9717;BME280;4897;43.570;27.832;2023-04-29T02:03:03;99102.47;;;5.37;100.00
9717;BME280;4897;43.570;27.832;2023-04-29T02:05:30;99151.50;;;5.71;100.00
9717;BME280;4897;43.570;27.832;2023-04-29T02:07:58;99156.22;;;5.80;100.00
9717;BME280;4897;43.570;27.832;2023-04-29T02:10:28;99165.22;;;5.91;100.00
9717;BME280;4897;43.570;27.832;2023-04-29T02:12:55;99153.66;;;5.78;100.00
9717;BME280;4897;43.570;27.832;2023-04-29T02:15:25;99154.91;;;5.73;100.00
9717;BME280;4897;43.570;27.832;2023-04-29T02:17:52;99161.94;;;5.74;100.00
9717;BME280;4897;43.570;27.832;2023-04-29T02:20:19;99149.31;;;5.50;100.00
9717;BME280;4897;43.570;27.832;2023-04-29T02:22:46;99162.72;;;5.61;100.00
9717;BME280;4897;43.570;27.832;2023-04-29T02:25:12;99169.50;;;5.65;100.00
9717;BME280;4897;43.570;27.832;2023-04-29T02:27:39;99160.63;;;5.66;100.00
9717;BME280;4897;43.570;27.832;2023-04-29T02:30:07;99165.00;;;5.53;100.00
9717;BME280;4897;43.570;27.832;2023-04-29T02:32:35;99160.97;;;5.48;100.00
9717;BME280;4897;43.570;27.832;2023-04-29T02:35:04;99141.75;;;5.30;100.00
9717;BME280;4897;43.570;27.832;2023-04-29T02:37:31;99147.06;;;5.30;100.00
9717;BME280;4897;43.570;27.832;2023-04-29T02:39:58;99165.78;;;5.41;100.00
9717;BME280;4897;43.570;27.832;2023-04-29T02:42:25;99167.88;;;5.36;100.00
9717;BME280;4897;43.570;27.832;2023-04-29T02:44:52;99161.06;;;5.32;100.00
9717;BME280;4897;43.570;27.832;2023-04-29T02:47:19;99170.75;;;5.33;100.00
9717;BME280;4897;43.570;27.832;2023-04-29T02:49:47;99164.00;;;5.28;100.00
9717;BME280;4897;43.570;27.832;2023-04-29T02:52:14;99145.75;;;5.09;100.00
9717;BME280;4897;43.570;27.832;2023-04-29T02:54:41;99136.50;;;5.16;100.00
9717;BME280;4897;43.570;27.832;2023-04-29T02:57:08;99082.59;;;4.89;100.00
9717;BME280;4897;43.570;27.832;2023-04-29T02:59:35;99123.16;;;5.04;100.00
9717;BME280;4897;43.570;27.832;2023-04-29T03:02:02;99159.63;;;5.41;100.00
9717;BME280;4897;43.570;27.832;2023-04-29T03:04:29;99169.13;;;5.31;100.00
9717;BME280;4897;43.570;27.832;2023-04-29T03:06:57;99142.16;;;5.24;100.00
9717;BME280;4897;43.570;27.832;2023-04-29T03:09:24;99158.25;;;5.35;100.00
9717;BME280;4897;43.570;27.832;2023-04-29T03:11:51;99168.84;;;5.35;100.00
9717;BME280;4897;43.570;27.832;2023-04-29T03:14:18;99129.66;;;5.26;100.00
9717;BME280;4897;43.570;27.832;2023-04-29T03:16:45;99119.19;;;5.11;100.00
9717;BME280;4897;43.570;27.832;2023-04-29T03:19:12;99168.44;;;5.41;100.00
9717;BME280;4897;43.570;27.832;2023-04-29T03:21:39;99153.03;;;5.34;100.00
9717;BME280;4897;43.570;27.832;2023-04-29T03:24:07;99173.00;;;5.39;100.00
9717;BME280;4897;43.570;27.832;2023-04-29T03:26:34;99124.09;;;5.17;100.00
9717;BME280;4897;43.570;27.832;2023-04-29T03:29:01;99163.94;;;5.29;100.00
9717;BME280;4897;43.570;27.832;2023-04-29T03:31:28;99173.19;;;5.36;100.00
9717;BME280;4897;43.570;27.832;2023-04-29T03:33:55;99164.47;;;5.34;100.00
9717;BME280;4897;43.570;27.832;2023-04-29T03:36:22;99152.16;;;5.47;100.00
9717;BME280;4897;43.570;27.832;2023-04-29T03:38:49;99124.63;;;5.22;100.00
9717;BME280;4897;43.570;27.832;2023-04-29T03:41:17;99172.03;;;5.54;100.00
9717;BME280;4897;43.570;27.832;2023-04-29T03:43:44;99167.31;;;5.45;100.00
9717;BME280;4897;43.570;27.832;2023-04-29T03:46:11;99145.00;;;5.21;100.00
9717;BME280;4897;43.570;27.832;2023-04-29T03:48:38;99169.38;;;5.40;100.00
9717;BME280;4897;43.570;27.832;2023-04-29T03:51:05;99177.72;;;5.48;100.00
9717;BME280;4897;43.570;27.832;2023-04-29T03:53:33;99173.44;;;5.60;100.00
9717;BME280;4897;43.570;27.832;2023-04-29T03:56:01;99170.19;;;5.69;100.00
9717;BME280;4897;43.570;27.832;2023-04-29T03:58:29;99154.16;;;5.71;100.00
9717;BME280;4897;43.570;27.832;2023-04-29T04:00:57;99138.34;;;5.69;100.00
9717;BME280;4897;43.570;27.832;2023-04-29T04:03:23;99167.16;;;6.02;100.00
9717;BME280;4897;43.570;27.832;2023-04-29T04:05:52;99166.97;;;6.05;100.00
9717;BME280;4897;43.570;27.832;2023-04-29T04:08:19;99172.69;;;6.11;100.00
9717;BME280;4897;43.570;27.832;2023-04-29T04:10:46;99176.19;;;6.12;100.00
9717;BME280;4897;43.570;27.832;2023-04-29T04:13:13;99176.00;;;6.15;100.00
9717;BME280;4897;43.570;27.832;2023-04-29T04:15:41;99180.34;;;6.16;100.00
9717;BME280;4897;43.570;27.832;2023-04-29T04:18:08;99106.59;;;5.67;100.00
9717;BME280;4897;43.570;27.832;2023-04-29T04:20:37;99179.59;;;6.14;100.00
9717;BME280;4897;43.570;27.832;2023-04-29T04:23:04;99172.78;;;6.10;100.00
9717;BME280;4897;43.570;27.832;2023-04-29T04:25:31;99167.59;;;6.08;100.00
9717;BME280;4897;43.570;27.832;2023-04-29T04:27:58;99185.25;;;6.22;100.00
9717;BME280;4897;43.570;27.832;2023-04-29T04:30:25;99104.69;;;5.84;100.00
9717;BME280;4897;43.570;27.832;2023-04-29T04:32:53;99174.66;;;6.34;100.00
9717;BME280;4897;43.570;27.832;2023-04-29T04:35:20;99072.25;;;5.79;100.00
9717;BME280;4897;43.570;27.832;2023-04-29T04:37:47;99145.53;;;6.20;100.00
9717;BME280;4897;43.570;27.832;2023-04-29T04:40:19;99179.38;;;6.56;100.00
9717;BME280;4897;43.570;27.832;2023-04-29T04:42:46;99155.78;;;6.64;100.00
9717;BME280;4897;43.570;27.832;2023-04-29T04:45:13;99144.84;;;6.69;100.00
9717;BME280;4897;43.570;27.832;2023-04-29T04:47:40;99181.09;;;6.95;100.00
9717;BME280;4897;43.570;27.832;2023-04-29T04:50:09;99167.03;;;7.05;100.00
9717;BME280;4897;43.570;27.832;2023-04-29T04:52:36;99167.88;;;7.18;100.00
9717;BME280;4897;43.570;27.832;2023-04-29T04:55:03;99153.94;;;7.28;100.00
9717;BME280;4897;43.570;27.832;2023-04-29T04:57:30;99161.44;;;7.46;100.00
9717;BME280;4897;43.570;27.832;2023-04-29T04:59:57;99185.44;;;7.57;100.00
9717;BME280;4897;43.570;27.832;2023-04-29T05:02:24;99172.56;;;7.64;100.00
9717;BME280;4897;43.570;27.832;2023-04-29T05:04:51;99145.00;;;7.65;100.00
9717;BME280;4897;43.570;27.832;2023-04-29T05:07:19;99145.81;;;7.78;100.00
9717;BME280;4897;43.570;27.832;2023-04-29T05:09:46;99156.22;;;8.04;100.00
9717;BME280;4897;43.570;27.832;2023-04-29T05:12:13;99148.78;;;8.21;100.00
9717;BME280;4897;43.570;27.832;2023-04-29T05:14:40;99151.72;;;8.29;100.00
9717;BME280;4897;43.570;27.832;2023-04-29T05:17:10;99159.25;;;8.69;100.00
9717;BME280;4897;43.570;27.832;2023-04-29T05:19:37;99128.78;;;8.50;100.00
9717;BME280;4897;43.570;27.832;2023-04-29T05:22:04;99153.19;;;8.67;100.00
9717;BME280;4897;43.570;27.832;2023-04-29T05:24:32;99164.72;;;8.90;100.00
9717;BME280;4897;43.570;27.832;2023-04-29T05:26:59;99121.41;;;8.64;100.00
9717;BME280;4897;43.570;27.832;2023-04-29T05:29:26;99122.66;;;8.71;100.00
9717;BME280;4897;43.570;27.832;2023-04-29T05:31:55;99141.44;;;8.81;100.00
9717;BME280;4897;43.570;27.832;2023-04-29T05:34:25;99124.59;;;8.92;100.00
9717;BME280;4897;43.570;27.832;2023-04-29T05:37:00;99141.69;;;8.89;100.00
9717;BME280;4897;43.570;27.832;2023-04-29T05:39:27;99161.00;;;9.26;100.00
9717;BME280;4897;43.570;27.832;2023-04-29T05:41:55;99144.84;;;9.16;100.00
9717;BME280;4897;43.570;27.832;2023-04-29T05:44:23;99134.53;;;9.45;100.00
9717;BME280;4897;43.570;27.832;2023-04-29T05:46:50;99150.22;;;9.81;100.00
9717;BME280;4897;43.570;27.832;2023-04-29T05:49:20;99116.09;;;9.85;100.00
9717;BME280;4897;43.570;27.832;2023-04-29T05:51:47;99123.22;;;9.95;100.00
9717;BME280;4897;43.570;27.832;2023-04-29T05:54:14;99143.13;;;10.02;100.00
9717;BME280;4897;43.570;27.832;2023-04-29T05:56:41;99156.41;;;10.24;100.00
9717;BME280;4897;43.570;27.832;2023-04-29T05:59:09;99158.41;;;10.00;100.00
9717;BME280;4897;43.570;27.832;2023-04-29T06:01:36;99155.47;;;9.72;100.00
9717;BME280;4897;43.570;27.832;2023-04-29T06:04:03;99139.59;;;9.48;100.00
9717;BME280;4897;43.570;27.832;2023-04-29T06:06:30;99161.47;;;9.53;100.00
9717;BME280;4897;43.570;27.832;2023-04-29T06:08:59;99151.97;;;9.60;100.00
9717;BME280;4897;43.570;27.832;2023-04-29T06:11:26;99152.03;;;9.81;100.00
9717;BME280;4897;43.570;27.832;2023-04-29T06:13:53;99139.06;;;10.08;100.00
9717;BME280;4897;43.570;27.832;2023-04-29T06:16:23;99133.88;;;10.06;100.00
9717;BME280;4897;43.570;27.832;2023-04-29T06:18:50;99148.91;;;10.18;100.00
9717;BME280;4897;43.570;27.832;2023-04-29T06:21:17;99131.06;;;10.19;100.00
9717;BME280;4897;43.570;27.832;2023-04-29T06:23:44;99134.78;;;10.27;100.00
9717;BME280;4897;43.570;27.832;2023-04-29T06:26:11;99144.72;;;10.36;100.00
9717;BME280;4897;43.570;27.832;2023-04-29T06:28:40;99145.09;;;10.53;100.00
9717;BME280;4897;43.570;27.832;2023-04-29T06:31:10;99146.19;;;10.71;100.00
9717;BME280;4897;43.570;27.832;2023-04-29T06:33:38;99154.16;;;10.82;100.00
9717;BME280;4897;43.570;27.832;2023-04-29T06:36:05;99160.44;;;10.71;100.00
9717;BME280;4897;43.570;27.832;2023-04-29T06:38:32;99126.53;;;10.51;100.00
9717;BME280;4897;43.570;27.832;2023-04-29T06:41:00;99152.59;;;10.79;100.00
9717;BME280;4897;43.570;27.832;2023-04-29T06:43:27;99139.72;;;10.94;100.00
9717;BME280;4897;43.570;27.832;2023-04-29T06:45:54;99120.28;;;10.92;98.01
9717;BME280;4897;43.570;27.832;2023-04-29T06:48:22;99127.31;;;11.23;100.00
9717;BME280;4897;43.570;27.832;2023-04-29T06:50:51;99127.06;;;11.26;97.18
9717;BME280;4897;43.570;27.832;2023-04-29T06:53:18;99136.31;;;11.52;92.76
9717;BME280;4897;43.570;27.832;2023-04-29T06:55:45;99134.66;;;11.61;92.43
9717;BME280;4897;43.570;27.832;2023-04-29T06:58:12;99053.38;;;11.22;81.32
9717;BME280;4897;43.570;27.832;2023-04-29T07:00:42;99136.88;;;11.56;80.15
9717;BME280;4897;43.570;27.832;2023-04-29T07:03:09;99114.47;;;11.57;79.22
9717;BME280;4897;43.570;27.832;2023-04-29T07:05:36;99127.66;;;11.79;78.84
9717;BME280;4897;43.570;27.832;2023-04-29T07:08:08;99108.59;;;11.72;77.51
9717;BME280;4897;43.570;27.832;2023-04-29T07:10:35;99138.66;;;11.85;74.34
9717;BME280;4897;43.570;27.832;2023-04-29T07:13:02;99136.69;;;11.87;75.53
9717;BME280;4897;43.570;27.832;2023-04-29T07:15:29;99137.25;;;11.81;76.04
9717;BME280;4897;43.570;27.832;2023-04-29T07:18:02;99143.75;;;11.98;77.03
9717;BME280;4897;43.570;27.832;2023-04-29T07:20:29;99106.25;;;11.88;78.14
9717;BME280;4897;43.570;27.832;2023-04-29T07:22:56;99116.25;;;11.86;76.75
9717;BME280;4897;43.570;27.832;2023-04-29T07:25:25;99107.53;;;12.03;76.42
9717;BME280;4897;43.570;27.832;2023-04-29T07:27:53;99138.41;;;12.46;75.35
9717;BME280;4897;43.570;27.832;2023-04-29T07:30:20;99118.09;;;12.53;71.57
9717;BME280;4897;43.570;27.832;2023-04-29T07:32:48;99133.84;;;12.75;71.14
9717;BME280;4897;43.570;27.832;2023-04-29T07:35:18;99132.19;;;12.64;70.54
9717;BME280;4897;43.570;27.832;2023-04-29T07:37:45;99129.88;;;12.79;70.98
9717;BME280;4897;43.570;27.832;2023-04-29T07:40:12;99107.59;;;12.69;65.74
9717;BME280;4897;43.570;27.832;2023-04-29T07:42:41;99123.94;;;12.95;65.46
9717;BME280;4897;43.570;27.832;2023-04-29T07:45:09;99121.66;;;13.09;64.83
9717;BME280;4897;43.570;27.832;2023-04-29T07:47:38;99114.13;;;13.22;65.66
9717;BME280;4897;43.570;27.832;2023-04-29T07:50:05;99114.94;;;13.59;59.71
9717;BME280;4897;43.570;27.832;2023-04-29T07:52:33;99071.50;;;13.82;55.75
9717;BME280;4897;43.570;27.832;2023-04-29T07:55:00;99109.69;;;15.33;52.59
9717;BME280;4897;43.570;27.832;2023-04-29T07:57:29;99106.44;;;16.29;49.32
9717;BME280;4897;43.570;27.832;2023-04-29T07:59:57;99106.09;;;16.40;47.66
9717;BME280;4897;43.570;27.832;2023-04-29T08:02:29;99084.09;;;15.70;47.42
9717;BME280;4897;43.570;27.832;2023-04-29T08:05:00;99104.13;;;15.68;47.13
9717;BME280;4897;43.570;27.832;2023-04-29T08:07:27;99115.16;;;15.49;48.42
9717;BME280;4897;43.570;27.832;2023-04-29T08:09:54;99087.75;;;15.61;48.95
9717;BME280;4897;43.570;27.832;2023-04-29T08:12:23;99090.06;;;16.06;46.99
9717;BME280;4897;43.570;27.832;2023-04-29T08:14:52;99082.22;;;17.24;45.58
9717;BME280;4897;43.570;27.832;2023-04-29T08:17:20;99087.38;;;16.87;46.37
9717;BME280;4897;43.570;27.832;2023-04-29T08:19:47;99048.44;;;17.67;44.83
9717;BME280;4897;43.570;27.832;2023-04-29T08:22:17;99082.81;;;18.79;43.29
9717;BME280;4897;43.570;27.832;2023-04-29T08:24:47;99083.03;;;19.65;40.79
9717;BME280;4897;43.570;27.832;2023-04-29T08:27:14;99077.69;;;20.43;38.62
9717;BME280;4897;43.570;27.832;2023-04-29T08:29:41;99067.16;;;19.98;38.26
9717;BME280;4897;43.570;27.832;2023-04-29T08:32:08;99064.31;;;20.42;38.00
9717;BME280;4897;43.570;27.832;2023-04-29T08:34:37;99063.56;;;20.54;37.83
9717;BME280;4897;43.570;27.832;2023-04-29T08:37:04;99069.19;;;19.02;38.63
9717;BME280;4897;43.570;27.832;2023-04-29T08:39:32;98992.34;;;17.91;41.11
9717;BME280;4897;43.570;27.832;2023-04-29T08:42:07;99044.06;;;18.93;39.68
9717;BME280;4897;43.570;27.832;2023-04-29T08:44:34;99076.75;;;18.92;39.26
9717;BME280;4897;43.570;27.832;2023-04-29T08:47:01;99067.88;;;20.21;39.02
9717;BME280;4897;43.570;27.832;2023-04-29T08:49:28;99062.22;;;20.44;37.59
9717;BME280;4897;43.570;27.832;2023-04-29T08:52:00;99057.50;;;20.31;37.39
9717;BME280;4897;43.570;27.832;2023-04-29T08:54:28;99027.78;;;19.87;37.63
9717;BME280;4897;43.570;27.832;2023-04-29T08:56:55;99042.81;;;20.05;36.95
9717;BME280;4897;43.570;27.832;2023-04-29T08:59:24;99062.09;;;21.35;36.17
9717;BME280;4897;43.570;27.832;2023-04-29T09:01:53;99009.94;;;19.78;37.23
9717;BME280;4897;43.570;27.832;2023-04-29T09:04:29;98998.28;;;20.69;35.72
9717;BME280;4897;43.570;27.832;2023-04-29T09:07:05;99016.84;;;21.75;35.70
9717;BME280;4897;43.570;27.832;2023-04-29T09:09:33;99061.16;;;21.96;35.26
9717;BME280;4897;43.570;27.832;2023-04-29T09:12:01;99056.44;;;21.36;35.63
9717;BME280;4897;43.570;27.832;2023-04-29T09:14:29;99021.59;;;22.26;34.84
9717;BME280;4897;43.570;27.832;2023-04-29T09:16:58;99040.91;;;22.51;34.56
9717;BME280;4897;43.570;27.832;2023-04-29T09:19:30;99036.44;;;23.29;33.71
9717;BME280;4897;43.570;27.832;2023-04-29T09:21:57;99032.09;;;21.22;35.89
9717;BME280;4897;43.570;27.832;2023-04-29T09:24:30;99038.13;;;21.17;36.12
9717;BME280;4897;43.570;27.832;2023-04-29T09:26:57;99035.00;;;21.20;36.69
9717;BME280;4897;43.570;27.832;2023-04-29T09:29:24;99023.81;;;21.84;35.68
9717;BME280;4897;43.570;27.832;2023-04-29T09:31:51;99017.56;;;23.34;34.25
9717;BME280;4897;43.570;27.832;2023-04-29T09:34:29;99036.47;;;22.31;35.31
9717;BME280;4897;43.570;27.832;2023-04-29T09:36:57;99031.06;;;20.95;36.45
9717;BME280;4897;43.570;27.832;2023-04-29T09:39:24;99021.28;;;21.82;35.70
9717;BME280;4897;43.570;27.832;2023-04-29T09:41:59;98964.41;;;22.46;34.60
9717;BME280;4897;43.570;27.832;2023-04-29T09:44:30;99004.22;;;22.21;34.78
9717;BME280;4897;43.570;27.832;2023-04-29T09:46:59;99003.66;;;21.78;34.68
9717;BME280;4897;43.570;27.832;2023-04-29T09:49:29;99013.19;;;20.52;36.18
9717;BME280;4897;43.570;27.832;2023-04-29T09:51:58;99000.84;;;22.19;34.82
9717;BME280;4897;43.570;27.832;2023-04-29T09:54:30;98970.97;;;23.35;33.45
9717;BME280;4897;43.570;27.832;2023-04-29T09:57:00;98991.44;;;23.95;32.97
9717;BME280;4897;43.570;27.832;2023-04-29T09:59:30;98981.81;;;23.55;32.89
9717;BME280;4897;43.570;27.832;2023-04-29T10:01:59;98985.72;;;22.95;33.64
9717;BME280;4897;43.570;27.832;2023-04-29T10:04:31;98986.59;;;22.56;34.16
9717;BME280;4897;43.570;27.832;2023-04-29T10:07:01;98989.97;;;22.45;33.89
9717;BME280;4897;43.570;27.832;2023-04-29T10:09:29;98995.16;;;21.40;34.42
9717;BME280;4897;43.570;27.832;2023-04-29T10:11:57;98979.88;;;22.91;33.64
9717;BME280;4897;43.570;27.832;2023-04-29T10:14:29;98955.53;;;23.92;32.80
9717;BME280;4897;43.570;27.832;2023-04-29T10:17:00;98973.13;;;23.64;32.62
9717;BME280;4897;43.570;27.832;2023-04-29T10:19:33;98962.28;;;23.89;32.10
9717;BME280;4897;43.570;27.832;2023-04-29T10:22:06;98920.56;;;23.31;32.51
9717;BME280;4897;43.570;27.832;2023-04-29T10:24:34;98955.66;;;23.72;32.21
9717;BME280;4897;43.570;27.832;2023-04-29T10:27:06;98982.56;;;23.11;31.95
9717;BME280;4897;43.570;27.832;2023-04-29T10:29:36;98958.72;;;22.48;32.78
9717;BME280;4897;43.570;27.832;2023-04-29T10:32:06;98961.44;;;22.74;33.64
9717;BME280;4897;43.570;27.832;2023-04-29T10:34:37;98969.34;;;23.08;32.78
9717;BME280;4897;43.570;27.832;2023-04-29T10:37:05;98957.66;;;22.81;33.04
9717;BME280;4897;43.570;27.832;2023-04-29T10:39:43;98964.81;;;22.10;32.98
9717;BME280;4897;43.570;27.832;2023-04-29T10:42:24;98965.41;;;22.84;32.94
9717;BME280;4897;43.570;27.832;2023-04-29T10:45:18;98947.97;;;23.56;32.00
9717;BME280;4897;43.570;27.832;2023-04-29T10:48:09;98962.34;;;23.32;31.96
9717;BME280;4897;43.570;27.832;2023-04-29T10:50:58;98973.59;;;22.39;32.40
9717;BME280;4897;43.570;27.832;2023-04-29T10:53:26;98962.28;;;21.96;33.03
9717;BME280;4897;43.570;27.832;2023-04-29T10:55:57;98961.88;;;22.77;32.36
9717;BME280;4897;43.570;27.832;2023-04-29T10:58:35;98940.09;;;23.28;31.79
9717;BME280;4897;43.570;27.832;2023-04-29T11:01:04;98950.91;;;23.61;31.54
9717;BME280;4897;43.570;27.832;2023-04-29T11:03:51;98921.41;;;23.32;31.94
9717;BME280;4897;43.570;27.832;2023-04-29T11:06:25;98934.59;;;23.48;31.98
9717;BME280;4897;43.570;27.832;2023-04-29T11:09:02;98933.81;;;23.28;32.71
9717;BME280;4897;43.570;27.832;2023-04-29T11:11:46;98947.63;;;22.75;32.84
9717;BME280;4897;43.570;27.832;2023-04-29T11:14:22;98913.06;;;22.10;33.25
9717;BME280;4897;43.570;27.832;2023-04-29T11:16:56;98929.53;;;22.94;32.73
9717;BME280;4897;43.570;27.832;2023-04-29T11:19:27;98906.97;;;22.67;32.68
9717;BME280;4897;43.570;27.832;2023-04-29T11:22:11;98871.94;;;22.51;32.40
9717;BME280;4897;43.570;27.832;2023-04-29T11:24:49;98914.84;;;23.83;31.80
9717;BME280;4897;43.570;27.832;2023-04-29T11:27:17;98924.88;;;23.58;31.36
9717;BME280;4897;43.570;27.832;2023-04-29T11:29:45;98916.63;;;23.71;31.59
9717;BME280;4897;43.570;27.832;2023-04-29T11:32:14;98917.88;;;23.25;31.40
9717;BME280;4897;43.570;27.832;2023-04-29T11:34:41;98943.66;;;22.58;32.06
9717;BME280;4897;43.570;27.832;2023-04-29T11:37:09;98923.06;;;21.77;33.19
9717;BME280;4897;43.570;27.832;2023-04-29T11:39:36;98871.69;;;21.35;33.36
9717;BME280;4897;43.570;27.832;2023-04-29T11:42:04;98920.13;;;21.79;33.57
9717;BME280;4897;43.570;27.832;2023-04-29T11:44:33;98836.47;;;22.77;31.54
9717;BME280;4897;43.570;27.832;2023-04-29T11:47:01;98912.88;;;23.59;31.04
9717;BME280;4897;43.570;27.832;2023-04-29T11:49:34;98909.78;;;23.87;31.20
9717;BME280;4897;43.570;27.832;2023-04-29T11:52:02;98914.28;;;23.37;31.32
9717;BME280;4897;43.570;27.832;2023-04-29T11:54:29;98900.25;;;22.57;32.31
9717;BME280;4897;43.570;27.832;2023-04-29T11:56:57;98896.06;;;23.18;31.88
9717;BME280;4897;43.570;27.832;2023-04-29T11:59:25;98892.63;;;22.91;31.63
9717;BME280;4897;43.570;27.832;2023-04-29T12:01:52;98901.41;;;23.00;31.37
9717;BME280;4897;43.570;27.832;2023-04-29T12:04:19;98785.06;;;21.52;32.15
9717;BME280;4897;43.570;27.832;2023-04-29T12:06:50;98752.00;;;21.48;31.64
9717;BME280;4897;43.570;27.832;2023-04-29T12:09:19;98930.63;;;22.80;31.04
9717;BME280;4897;43.570;27.832;2023-04-29T12:11:48;98676.03;;;21.07;30.85
9717;BME280;4897;43.570;27.832;2023-04-29T12:14:16;98735.56;;;22.33;31.10
9717;BME280;4897;43.570;27.832;2023-04-29T12:16:55;98874.41;;;23.99;30.10
9717;BME280;4897;43.570;27.832;2023-04-29T12:19:22;98564.16;;;21.23;31.41
9717;BME280;4897;43.570;27.832;2023-04-29T12:21:51;98868.97;;;22.72;32.14
9717;BME280;4897;43.570;27.832;2023-04-29T12:24:20;98805.75;;;22.95;31.42
9717;BME280;4897;43.570;27.832;2023-04-29T12:26:48;98822.88;;;23.53;30.67
9717;BME280;4897;43.570;27.832;2023-04-29T12:29:20;98784.31;;;24.17;29.98
9717;BME280;4897;43.570;27.832;2023-04-29T12:31:48;98850.50;;;24.98;29.51
9717;BME280;4897;43.570;27.832;2023-04-29T12:34:16;98678.41;;;23.51;30.03
9717;BME280;4897;43.570;27.832;2023-04-29T12:36:43;98632.72;;;24.01;29.77
9717;BME280;4897;43.570;27.832;2023-04-29T12:39:15;98868.25;;;26.26;29.59
9717;BME280;4897;43.570;27.832;2023-04-29T12:41:42;98641.16;;;24.95;28.87
9717;BME280;4897;43.570;27.832;2023-04-29T12:44:11;98871.75;;;25.62;28.53
9717;BME280;4897;43.570;27.832;2023-04-29T12:46:39;98802.63;;;24.71;28.69
9717;BME280;4897;43.570;27.832;2023-04-29T12:49:07;98671.44;;;24.52;28.83
9717;BME280;4897;43.570;27.832;2023-04-29T12:51:34;98650.63;;;24.81;28.62
9717;BME280;4897;43.570;27.832;2023-04-29T12:54:03;98809.75;;;24.53;29.12
9717;BME280;4897;43.570;27.832;2023-04-29T12:56:32;98665.75;;;22.76;29.68
9717;BME280;4897;43.570;27.832;2023-04-29T12:59:09;98549.19;;;22.09;30.50
9717;BME280;4897;43.570;27.832;2023-04-29T13:01:37;98582.00;;;22.65;30.02
9717;BME280;4897;43.570;27.832;2023-04-29T13:04:05;98839.09;;;24.65;29.54
9717;BME280;4897;43.570;27.832;2023-04-29T13:06:35;98640.00;;;23.89;29.38
9717;BME280;4897;43.570;27.832;2023-04-29T13:09:07;98877.72;;;24.75;28.88
9717;BME280;4897;43.570;27.832;2023-04-29T13:11:38;98782.41;;;24.53;28.73
9717;BME280;4897;43.570;27.832;2023-04-29T13:14:06;98695.75;;;24.06;28.91
9717;BME280;4897;43.570;27.832;2023-04-29T13:16:33;98747.31;;;23.47;29.70
9717;BME280;4897;43.570;27.832;2023-04-29T13:19:03;98910.59;;;24.43;29.54